Time;durP1;ratioP1;P1;durP2;ratioP2;P2;SDS_P1;SDS_P2;PMS_P1;PMS_P2;Temp;Humidity;BMP_temperature;BMP_pressure;BME280_temperature;BME280_humidity;BME280_pressure;Samples;Min_cycle;Max_cycle;Signal;HPM_P1;HPM_P2
2023/04/13 00:03:16;;;;;;;1.10;0.40;;;6.50;95.20;;;;;;20635490;28;20049;-40
2023/04/13 00:13:19;;;;;;;1.35;0.40;;;6.60;99.90;;;;;;20629302;28;20054;-40
2023/04/13 00:23:21;;;;;;;1.17;0.38;;;6.60;99.90;;;;;;20636131;28;20049;-40
2023/04/13 00:33:22;;;;;;;0.73;0.20;;;6.70;99.90;;;;;;20630905;28;20245;-40
2023/04/13 00:43:24;;;;;;;1.70;0.73;;;6.80;98.90;;;;;;20627338;28;20053;-41
2023/04/13 00:53:26;;;;;;;1.02;0.50;;;6.90;95.60;;;;;;20622769;28;20026;-40
2023/04/13 01:03:28;;;;;;;1.10;0.47;;;6.90;99.90;;;;;;20624594;28;20057;-40
2023/04/13 01:13:51;;;;;;;1.77;0.70;;;6.80;99.90;;;;;;20658596;28;20420;-40
2023/04/13 01:24:36;;;;;;;2.50;0.73;;;6.80;99.90;;;;;;20606967;28;20046;-41
2023/04/13 01:34:38;;;;;;;1.58;0.55;;;6.90;99.90;;;;;;20601652;28;20039;-41
2023/04/13 01:44:39;;;;;;;1.70;0.50;;;6.90;99.90;;;;;;20611521;28;20065;-41
2023/04/13 01:54:44;;;;;;;0.95;0.40;;;6.90;99.90;;;;;;20627930;28;20066;-41
2023/04/13 02:04:45;;;;;;;2.70;1.17;;;6.90;99.90;;;;;;20610010;28;20038;-41
2023/04/13 02:14:47;;;;;;;3.53;0.80;;;6.90;99.90;;;;;;20608683;28;20108;-40
2023/04/13 02:24:49;;;;;;;2.95;0.47;;;6.90;99.90;;;;;;20620802;28;20414;-41
2023/04/13 02:34:50;;;;;;;1.38;0.50;;;6.80;99.90;;;;;;20633189;28;20042;-40
2023/04/13 02:44:51;;;;;;;1.25;0.63;;;6.80;99.90;;;;;;20632316;28;20038;-41
2023/04/13 02:54:53;;;;;;;6.47;1.20;;;6.70;99.80;;;;;;20627673;28;20502;-41
2023/04/13 03:04:55;;;;;;;3.58;1.10;;;6.60;94.60;;;;;;20615385;28;20053;-41
2023/04/13 03:14:56;;;;;;;2.50;0.65;;;6.50;94.50;;;;;;20620504;28;20501;-41
2023/04/13 03:24:57;;;;;;;1.25;0.68;;;6.50;92.80;;;;;;20631361;28;20048;-41
2023/04/13 03:34:58;;;;;;;2.97;0.57;;;6.50;91.20;;;;;;20636773;28;20057;-41
2023/04/13 03:44:59;;;;;;;1.73;0.50;;;6.60;93.40;;;;;;20623871;28;20038;-41
2023/04/13 03:55:02;;;;;;;2.05;1.00;;;6.60;94.40;;;;;;20618876;28;20395;-41
2023/04/13 04:05:03;;;;;;;3.38;1.00;;;6.70;98.50;;;;;;20625219;28;20040;-41
2023/04/13 04:15:05;;;;;;;3.85;0.80;;;6.80;99.90;;;;;;20635355;28;20046;-41
2023/04/13 04:25:07;;;;;;;13.07;1.27;;;6.70;99.90;;;;;;20623731;28;20038;-41
2023/04/13 04:35:10;;;;;;;1.70;1.00;;;6.90;99.90;;;;;;20620944;28;20394;-41
2023/04/13 04:45:13;;;;;;;2.53;0.68;;;6.80;99.90;;;;;;20629509;28;20476;-41
2023/04/13 04:55:15;;;;;;;8.98;1.00;;;6.90;99.90;;;;;;20626262;28;20069;-41
2023/04/13 05:05:16;;;;;;;1.83;0.70;;;6.80;99.40;;;;;;20614418;28;20038;-41
2023/04/13 05:15:17;;;;;;;1.55;0.60;;;6.90;77.40;;;;;;20627979;28;20292;-41
2023/04/13 05:25:18;;;;;;;2.92;1.30;;;7.00;34.50;;;;;;20621294;28;20513;-41
2023/04/13 05:35:19;;;;;;;1.42;0.88;;;7.10;18.70;;;;;;20608984;28;20509;-41
2023/04/13 05:45:20;;;;;;;1.88;0.45;;;7.00;26.20;;;;;;20612009;28;20358;-41
2023/04/13 05:55:22;;;;;;;3.70;0.73;;;7.10;35.20;;;;;;20629230;28;20398;-42
2023/04/13 06:05:23;;;;;;;2.75;1.05;;;7.10;56.90;;;;;;20617709;28;20771;-42
2023/04/13 06:15:24;;;;;;;9.98;1.02;;;7.20;62.30;;;;;;20617603;28;20069;-42
2023/04/13 06:25:26;;;;;;;4.13;1.83;;;7.30;75.90;;;;;;20634313;28;20038;-41
2023/04/13 06:35:28;;;;;;;2.28;1.02;;;7.40;76.20;;;;;;20638603;28;20056;-41
2023/04/13 06:45:31;;;;;;;2.35;0.95;;;7.50;94.60;;;;;;20647248;28;20643;-41
2023/04/13 06:55:31;;;;;;;1.60;0.50;;;7.80;85.00;;;;;;20608321;28;20194;-41
2023/04/13 07:05:33;;;;;;;4.90;0.82;;;7.80;65.20;;;;;;20666025;28;20509;-41
2023/04/13 07:15:36;;;;;;;0.85;0.28;;;7.70;81.80;;;;;;20628030;28;20062;-41
2023/04/13 07:25:37;;;;;;;2.55;1.17;;;7.80;86.40;;;;;;20636292;28;20490;-41
2023/04/13 07:35:39;;;;;;;3.15;0.80;;;7.60;98.90;;;;;;20614379;28;20054;-41
2023/04/13 07:45:40;;;;;;;3.30;1.20;;;7.90;99.90;;;;;;20637748;28;20285;-42
2023/04/13 07:55:41;;;;;;;4.95;1.00;;;8.20;86.10;;;;;;20627805;28;20046;-42
2023/04/13 08:05:42;;;;;;;6.93;1.63;;;8.80;33.80;;;;;;20625156;28;20526;-41
2023/04/13 08:15:43;;;;;;;2.08;1.05;;;9.00;16.40;;;;;;20620362;28;20077;-41
2023/04/13 08:25:44;;;;;;;14.15;1.17;;;9.20;1.00;;;;;;20633528;28;20049;-41
2023/04/13 08:35:45;;;;;;;4.90;1.30;;;9.30;1.00;;;;;;20627380;28;20524;-41
2023/04/13 08:45:46;;;;;;;3.40;1.05;;;9.20;1.00;;;;;;20588342;28;20648;-42
2023/04/13 08:55:50;;;;;;;3.17;0.88;;;9.20;1.00;;;;;;20594899;28;20090;-42
2023/04/13 09:06:00;;;;;;;6.35;1.80;;;9.50;1.00;;;;;;20590263;28;20054;-42
2023/04/13 09:16:02;;;;;;;3.85;1.92;;;9.70;1.00;;;;;;20611500;28;20534;-42
2023/04/13 09:26:12;;;;;;;2.78;1.08;;;10.30;1.00;;;;;;20611813;28;20046;-42
2023/04/13 09:36:18;;;;;;;4.35;1.05;;;10.80;1.00;;;;;;20626309;28;20129;-41
2023/04/13 09:46:19;;;;;;;2.05;0.60;;;10.90;1.00;;;;;;20623715;28;20494;-42
2023/04/13 09:56:23;;;;;;;10.00;1.58;;;11.30;1.00;;;;;;20622910;28;20662;-42
2023/04/13 10:06:24;;;;;;;2.05;0.85;;;11.10;1.00;;;;;;20620377;28;20045;-42
2023/04/13 10:17:08;;;;;;;3.72;0.80;;;10.60;1.00;;;;;;20638188;28;20061;-43
2023/04/13 10:27:19;;;;;;;4.97;1.20;;;10.50;1.00;;;;;;20625152;28;20330;-42
2023/04/13 10:37:27;;;;;;;7.43;1.20;;;11.00;1.00;;;;;;20650632;28;20536;-42
2023/04/13 10:47:35;;;;;;;6.25;0.80;;;11.10;1.00;;;;;;20656332;28;20065;-42
2023/04/13 10:57:36;;;;;;;2.17;0.63;;;10.80;1.00;;;;;;20655728;28;20053;-43
2023/04/13 11:07:38;;;;;;;4.22;1.15;;;11.00;1.00;;;;;;20664399;28;20056;-42
2023/04/13 11:17:39;;;;;;;5.68;1.10;;;11.00;1.00;;;;;;20648578;28;20464;-43
2023/04/13 11:27:40;;;;;;;3.38;1.10;;;11.00;1.00;;;;;;20664903;28;20057;-43
2023/04/13 11:37:43;;;;;;;3.08;0.82;;;10.90;1.00;;;;;;20673979;28;20533;-42
2023/04/13 11:47:44;;;;;;;2.15;0.70;;;11.10;1.00;;;;;;20675288;28;20137;-43
2023/04/13 11:57:47;;;;;;;3.03;1.08;;;11.20;1.00;;;;;;20651522;28;20398;-42
2023/04/13 12:07:49;;;;;;;1.65;0.90;;;11.20;1.00;;;;;;20660944;28;20047;-43
2023/04/13 12:17:58;;;;;;;6.57;1.67;;;11.40;1.00;;;;;;20625918;28;20050;-42
2023/04/13 12:27:59;;;;;;;1.90;0.77;;;11.60;1.00;;;;;;20621033;28;20046;-43
2023/04/13 12:38:01;;;;;;;1.75;0.73;;;11.80;1.00;;;;;;20604210;28;20494;-43
2023/04/13 12:48:02;;;;;;;5.85;1.48;;;12.60;1.00;;;;;;20624687;28;20046;-43
2023/04/13 12:58:03;;;;;;;3.83;1.20;;;13.30;1.00;;;;;;20622956;28;20053;-42
2023/04/13 13:08:04;;;;;;;3.72;0.73;;;14.80;1.00;;;;;;20616172;28;20438;-43
2023/04/13 13:18:07;;;;;;;4.63;0.73;;;15.00;1.00;;;;;;20651404;28;20061;-43
2023/04/13 13:28:10;;;;;;;1.73;0.38;;;14.90;1.00;;;;;;20638153;28;20050;-43
2023/04/13 13:38:11;;;;;;;2.67;0.80;;;13.70;1.00;;;;;;20637530;28;20053;-42
2023/04/13 13:48:12;;;;;;;4.15;1.05;;;15.20;1.00;;;;;;20619631;28;20685;-42
2023/04/13 13:58:13;;;;;;;2.90;0.60;;;14.80;1.00;;;;;;20625561;28;20046;-42
2023/04/13 14:08:14;;;;;;;2.92;0.90;;;14.60;1.00;;;;;;20599513;28;20050;-42
2023/04/13 14:18:15;;;;;;;12.38;1.65;;;14.50;1.00;;;;;;20621793;28;20057;-42
2023/04/13 14:28:17;;;;;;;3.85;0.90;;;13.70;1.00;;;;;;20631200;28;21012;-42
2023/04/13 14:38:21;;;;;;;4.60;0.60;;;14.10;1.00;;;;;;20639766;28;20054;-42
2023/04/13 14:48:23;;;;;;;2.60;1.40;;;13.70;1.00;;;;;;20629594;28;20030;-42
2023/04/13 14:58:24;;;;;;;2.53;0.65;;;14.10;1.00;;;;;;20639769;28;20050;-43
2023/04/13 15:08:25;;;;;;;2.10;0.65;;;14.00;1.00;;;;;;20643756;28;20443;-42
2023/04/13 15:18:27;;;;;;;3.38;0.63;;;13.80;1.00;;;;;;20651490;28;20041;-42
2023/04/13 15:28:28;;;;;;;2.78;1.20;;;13.40;1.00;;;;;;20643787;28;20375;-42
2023/04/13 15:38:29;;;;;;;4.10;0.60;;;13.20;1.00;;;;;;20616235;28;20057;-43
2023/04/13 15:48:30;;;;;;;3.70;2.00;;;13.20;1.00;;;;;;20624906;28;20033;-42
2023/04/13 15:58:31;;;;;;;1.30;0.68;;;13.30;1.00;;;;;;20619764;28;20046;-42
2023/04/13 16:08:32;;;;;;;3.83;1.13;;;13.10;1.00;;;;;;20610201;28;20034;-42
2023/04/13 16:18:34;;;;;;;1.90;0.52;;;12.80;1.00;;;;;;20643077;28;20046;-42
2023/04/13 16:28:36;;;;;;;2.33;0.95;;;12.50;1.00;;;;;;20648322;28;20039;-42
2023/04/13 16:38:40;;;;;;;3.15;0.60;;;12.50;1.00;;;;;;20641652;28;20038;-42
2023/04/13 16:48:41;;;;;;;3.65;0.50;;;12.30;1.00;;;;;;20621548;28;20034;-42
2023/04/13 16:58:42;;;;;;;4.72;1.33;;;12.00;1.00;;;;;;20631536;28;20058;-41
2023/04/13 17:08:43;;;;;;;3.95;1.17;;;12.00;1.00;;;;;;20606021;28;20299;-42
2023/04/13 17:18:44;;;;;;;3.95;1.38;;;11.70;1.00;;;;;;20601783;28;20361;-42
2023/04/13 17:28:45;;;;;;;1.27;0.40;;;11.60;1.00;;;;;;20609710;28;20154;-42
2023/04/13 17:38:46;;;;;;;2.78;0.82;;;11.50;1.00;;;;;;20607628;28;20061;-43
2023/04/13 17:48:47;;;;;;;2.60;0.82;;;11.40;1.00;;;;;;20622875;28;20289;-42
2023/04/13 17:58:48;;;;;;;2.33;0.82;;;11.30;1.00;;;;;;20654508;28;20522;-42
2023/04/13 18:08:49;;;;;;;5.25;0.70;;;11.10;1.00;;;;;;20681010;28;20101;-42
2023/04/13 18:18:50;;;;;;;3.17;0.65;;;11.00;1.00;;;;;;20653863;28;20354;-42
2023/04/13 18:28:52;;;;;;;4.60;1.30;;;10.80;1.00;;;;;;20680762;28;20050;-42
2023/04/13 18:38:53;;;;;;;2.08;1.25;;;10.70;1.00;;;;;;20675639;28;20049;-42
2023/04/13 18:48:54;;;;;;;1.58;0.60;;;10.40;1.00;;;;;;20670122;28;20399;-42
2023/04/13 18:58:55;;;;;;;6.57;1.65;;;10.00;1.00;;;;;;20675590;28;20042;-42
2023/04/13 19:08:56;;;;;;;2.63;0.88;;;9.70;1.00;;;;;;20626525;28;20122;-43
2023/04/13 19:18:57;;;;;;;3.05;0.60;;;9.60;1.00;;;;;;20618343;28;20046;-42
2023/04/13 19:28:59;;;;;;;8.32;2.30;;;9.40;1.00;;;;;;20639615;28;20062;-43
2023/04/13 19:39:07;;;;;;;2.03;0.70;;;9.10;1.00;;;;;;20625000;28;20073;-43
2023/04/13 19:49:08;;;;;;;;;;;9.10;1.00;;;;;;20647587;28;20637;-42
2023/04/13 19:59:09;;;;;;;1.60;1.02;;;8.90;1.00;;;;;;20644402;28;20772;-42
2023/04/13 20:09:12;;;;;;;1.90;0.77;;;8.80;1.00;;;;;;20649965;28;20060;-43
2023/04/13 20:19:13;;;;;;;2.80;0.80;;;8.70;1.00;;;;;;20630856;28;20050;-42
2023/04/13 20:29:20;;;;;;;4.30;0.65;;;8.60;1.00;;;;;;20643119;28;20289;-43
2023/04/13 20:39:24;;;;;;;9.07;2.33;;;8.60;1.00;;;;;;20628093;28;20049;-43
2023/04/13 20:49:25;;;;;;;3.15;1.30;;;8.40;1.00;;;;;;20632633;28;20038;-43
2023/04/13 20:59:27;;;;;;;6.88;1.45;;;8.30;1.00;;;;;;20633838;28;20072;-43
2023/04/13 21:09:29;;;;;;;4.13;2.00;;;8.20;1.00;;;;;;20628478;28;20498;-43
2023/04/13 21:19:31;;;;;;;2.78;0.57;;;8.10;1.00;;;;;;20640892;28;20054;-43
2023/04/13 21:29:32;;;;;;;4.60;1.00;;;8.00;1.00;;;;;;20631203;28;20100;-43
2023/04/13 21:39:33;;;;;;;1.70;0.82;;;8.00;1.00;;;;;;20639174;28;20054;-43
2023/04/13 21:49:34;;;;;;;5.45;0.80;;;8.00;1.00;;;;;;20650597;28;20042;-43
2023/04/13 21:59:35;;;;;;;5.82;1.02;;;7.90;1.00;;;;;;20639951;28;20490;-43
2023/04/13 22:09:36;;;;;;;1.70;0.57;;;7.70;1.00;;;;;;20632783;28;20050;-43
2023/04/13 22:19:37;;;;;;;4.05;1.05;;;7.80;1.00;;;;;;20630899;28;20561;-43
2023/04/13 22:29:39;;;;;;;9.48;1.33;;;7.60;1.00;;;;;;20648382;28;20046;-43
2023/04/13 22:39:40;;;;;;;1.65;0.75;;;7.60;1.00;;;;;;20640347;28;20057;-43
2023/04/13 22:49:41;;;;;;;5.95;1.10;;;7.50;1.00;;;;;;20647956;28;20498;-44
2023/04/13 22:59:43;;;;;;;2.30;0.75;;;7.40;1.00;;;;;;20636245;28;20065;-44
2023/04/13 23:09:44;;;;;;;2.58;0.73;;;7.30;1.00;;;;;;20634284;28;20042;-43
2023/04/13 23:19:44;;;;;;;1.85;1.05;;;7.30;1.00;;;;;;20615849;28;20061;-43
2023/04/13 23:29:49;;;;;;;1.88;0.88;;;7.30;1.00;;;;;;20611188;28;20525;-43
2023/04/13 23:39:50;;;;;;;2.33;1.08;;;7.30;1.00;;;;;;20608920;28;20051;-43
2023/04/13 23:49:52;;;;;;;1.27;0.40;;;7.30;1.00;;;;;;20609707;28;20050;-43
2023/04/13 23:59:56;;;;;;;2.50;0.88;;;7.20;1.00;;;;;;20615160;28;20108;-43
